Time;durP1;ratioP1;P1;durP2;ratioP2;P2;SDS_P1;SDS_P2;PMS_P1;PMS_P2;Temp;Humidity;BMP_temperature;BMP_pressure;BME280_temperature;BME280_humidity;BME280_pressure;Samples;Min_cycle;Max_cycle;Signal;HPM_P1;HPM_P2
2024/01/06 00:19:19;;;;;;;;;;;;;;;;;;;;;
2024/01/06 00:21:46;;;;;;;49.20;24.63;;;7.80;95.00;;;;;;764473;183;26543;-95
2024/01/06 00:24:15;;;;;;;87.07;33.73;;;7.90;95.40;;;;;;775801;184;26418;-92
2024/01/06 00:29:35;;;;;;;;;;;;;;;;;;;;;
2024/01/06 00:32:09;;;;;;;30.83;17.73;;;7.90;95.50;;;;;;763666;187;27043;-93
2024/01/06 00:34:38;;;;;;;27.47;15.53;;;7.80;95.70;;;;;;764854;187;26430;-93
2024/01/06 18:56:29;;;;;;;155.80;44.33;;;4.60;99.90;;;;;;741711;177;26914;-86
2024/01/06 19:04:12;;;;;;;176.50;52.37;;;7.30;99.90;;;;;;799804;176;27212;-65
2024/01/06 19:06:39;;;;;;;124.97;44.87;;;9.60;99.90;;;;;;790263;180;26539;-65
2024/01/06 19:09:07;;;;;;;94.83;40.80;;;11.80;99.90;;;;;;780992;173;26533;-56
2024/01/06 19:11:34;;;;;;;62.17;29.90;;;12.50;99.90;;;;;;823545;172;26510;-58
2024/01/06 19:14:02;;;;;;;49.33;26.63;;;13.30;99.90;;;;;;821585;173;26508;-61
2024/01/06 19:16:28;;;;;;;40.53;23.20;;;13.90;99.60;;;;;;820874;173;26482;-56
2024/01/06 19:18:56;;;;;;;43.70;22.50;;;14.60;98.10;;;;;;822137;170;26520;-58
2024/01/06 19:21:23;;;;;;;38.87;20.37;;;15.00;97.20;;;;;;799402;176;26560;-60
2024/01/06 19:23:50;;;;;;;32.67;19.70;;;15.40;96.70;;;;;;797340;177;26549;-58
2024/01/06 19:26:18;;;;;;;35.07;18.27;;;15.80;96.70;;;;;;797937;178;26457;-62
2024/01/06 19:28:45;;;;;;;30.50;16.53;;;15.80;96.60;;;;;;797245;180;26553;-59
2024/01/06 19:31:11;;;;;;;30.20;16.13;;;16.00;95.30;;;;;;797001;177;26518;-59
2024/01/06 19:33:39;;;;;;;26.13;15.70;;;16.40;91.50;;;;;;795653;180;26521;-59
2024/01/06 19:36:06;;;;;;;27.97;15.37;;;16.60;90.50;;;;;;796524;180;26539;-54
2024/01/06 19:38:33;;;;;;;26.87;15.83;;;16.60;90.50;;;;;;807696;176;26454;-59
2024/01/06 19:41:00;;;;;;;26.70;15.53;;;16.70;89.60;;;;;;802559;176;26498;-61
2024/01/06 19:43:27;;;;;;;29.23;15.60;;;16.80;88.70;;;;;;804969;176;26465;-59
2024/01/06 19:45:54;;;;;;;29.10;15.47;;;17.00;87.00;;;;;;799763;176;26532;-59
2024/01/06 19:48:21;;;;;;;29.33;15.37;;;16.90;86.90;;;;;;798637;176;26502;-59
2024/01/06 19:50:48;;;;;;;33.00;16.00;;;17.10;86.50;;;;;;803782;176;26517;-57
2024/01/06 19:53:15;;;;;;;36.23;16.00;;;17.10;85.70;;;;;;806265;176;26532;-58
2024/01/06 19:55:42;;;;;;;34.67;15.93;;;17.20;85.70;;;;;;800738;176;26542;-61
2024/01/06 19:58:10;;;;;;;36.33;18.93;;;17.20;85.90;;;;;;803801;176;26583;-60
2024/01/06 20:00:37;;;;;;;82.13;33.37;;;17.30;86.30;;;;;;802788;176;26478;-57
2024/01/06 20:03:05;;;;;;;88.73;38.03;;;17.30;86.60;;;;;;804837;177;26457;-61
2024/01/06 20:05:31;;;;;;;98.93;40.17;;;17.30;86.90;;;;;;798882;176;28933;-58
2024/01/06 20:07:58;;;;;;;81.47;38.77;;;17.40;87.60;;;;;;794140;178;26508;-61
2024/01/06 20:10:24;;;;;;;97.93;40.10;;;17.40;87.90;;;;;;800031;174;27010;-59
2024/01/06 20:12:51;;;;;;;83.17;36.37;;;17.50;88.20;;;;;;798547;176;26461;-60
2024/01/06 20:15:18;;;;;;;86.47;35.07;;;17.50;88.20;;;;;;812108;174;27025;-56
2024/01/06 20:17:44;;;;;;;86.43;36.50;;;17.50;88.10;;;;;;809564;176;26462;-61
2024/01/06 20:20:11;;;;;;;78.70;33.60;;;17.50;88.00;;;;;;808932;176;27607;-61
2024/01/06 20:22:38;;;;;;;79.47;34.80;;;17.50;87.70;;;;;;802376;176;27096;-59
2024/01/06 20:50:54;;;;;;;75.37;31.27;;;13.30;64.70;;;;;;785085;177;28402;-86
2024/01/06 20:53:24;;;;;;;78.97;30.67;;;4.20;98.20;;;;;;766725;186;26482;-86
2024/01/06 20:55:55;;;;;;;78.10;30.53;;;4.00;98.60;;;;;;766645;184;26481;-84
2024/01/06 20:58:25;;;;;;;87.00;31.73;;;3.90;99.10;;;;;;766250;187;26716;-85
2024/01/06 21:00:54;;;;;;;86.37;31.77;;;3.90;99.50;;;;;;772395;184;26474;-86
2024/01/06 21:03:27;;;;;;;88.70;30.13;;;3.80;99.70;;;;;;775864;184;26501;-84
2024/01/06 21:05:57;;;;;;;80.33;30.53;;;3.80;99.90;;;;;;775773;184;26504;-84
2024/01/06 21:08:27;;;;;;;93.13;33.50;;;3.80;99.90;;;;;;761373;183;26470;-84
2024/01/06 21:11:16;;;;;;;101.67;35.93;;;3.70;99.90;;;;;;770271;186;26496;-84
2024/01/06 21:13:46;;;;;;;113.87;37.90;;;3.70;99.90;;;;;;781334;182;26466;-83
2024/01/06 21:16:17;;;;;;;109.50;36.53;;;3.70;99.90;;;;;;750950;189;26516;-85
2024/01/06 21:18:52;;;;;;;111.93;34.87;;;3.70;99.90;;;;;;771200;184;26473;-84
2024/01/06 21:21:34;;;;;;;102.87;34.33;;;3.70;99.90;;;;;;789623;180;26438;-84
2024/01/06 21:24:06;;;;;;;95.57;32.80;;;3.60;99.90;;;;;;788742;182;26482;-84
2024/01/06 21:32:36;;;;;;;113.03;35.60;;;3.50;99.90;;;;;;718808;180;26557;-85
2024/01/06 21:46:18;;;;;;;101.13;34.67;;;3.50;99.90;;;;;;781770;180;26555;-85
2024/01/06 21:48:46;;;;;;;111.37;38.20;;;3.50;99.90;;;;;;816008;176;27348;-80
2024/01/06 21:51:17;;;;;;;105.70;36.20;;;3.60;99.90;;;;;;799387;179;26463;-83
2024/01/06 21:54:06;;;;;;;104.37;36.17;;;3.60;99.90;;;;;;809614;176;26429;-83
2024/01/06 21:56:33;;;;;;;106.13;36.37;;;3.60;99.90;;;;;;811071;177;26441;-84
2024/01/06 21:59:15;;;;;;;125.97;38.87;;;3.50;99.90;;;;;;804124;176;26469;-83
2024/01/06 22:04:31;;;;;;;123.33;39.07;;;3.60;99.90;;;;;;801209;177;26439;-83
2024/01/06 22:06:57;;;;;;;118.93;38.10;;;3.60;99.90;;;;;;801078;177;26433;-83
2024/01/06 22:09:37;;;;;;;111.33;35.27;;;3.60;99.90;;;;;;807456;178;26517;-84
2024/01/06 22:12:13;;;;;;;126.23;38.13;;;3.60;99.90;;;;;;811232;177;26462;-83
2024/01/06 22:15:00;;;;;;;110.43;35.80;;;3.50;99.90;;;;;;808003;178;26490;-83
2024/01/06 22:17:27;;;;;;;119.80;38.63;;;3.50;99.90;;;;;;803500;177;26449;-80
2024/01/06 22:22:39;;;;;;;124.43;37.27;;;3.50;99.90;;;;;;719633;184;26557;-83
2024/01/06 22:25:09;;;;;;;122.90;39.13;;;3.50;99.90;;;;;;773002;185;26475;-84
2024/01/06 22:30:22;;;;;;;113.77;37.10;;;3.50;99.90;;;;;;787366;181;26498;-84
2024/01/06 22:32:53;;;;;;;106.37;34.50;;;3.50;99.90;;;;;;782139;183;26477;-83
2024/01/06 22:35:34;;;;;;;117.77;35.40;;;3.50;99.90;;;;;;786173;180;26513;-81
2024/01/06 22:38:03;;;;;;;118.47;35.27;;;3.50;99.90;;;;;;795427;180;26485;-85
2024/01/06 22:46:07;;;;;;;115.03;38.50;;;3.50;99.90;;;;;;802640;178;26528;-84
2024/01/06 22:51:28;;;;;;;116.70;35.97;;;3.60;99.90;;;;;;713417;177;26544;-84
2024/01/06 22:53:58;;;;;;;99.47;33.17;;;3.60;99.90;;;;;;766909;187;26518;-84
2024/01/06 22:56:28;;;;;;;105.23;35.53;;;3.60;99.90;;;;;;779824;183;26489;-82
2024/01/06 22:58:54;;;;;;;115.67;37.27;;;3.50;99.90;;;;;;782141;183;26509;-80
2024/01/06 23:01:24;;;;;;;117.93;37.27;;;3.60;99.90;;;;;;779583;183;26531;-84
2024/01/06 23:03:54;;;;;;;101.43;34.37;;;3.50;99.90;;;;;;779759;184;26510;-82
2024/01/06 23:06:24;;;;;;;116.63;36.73;;;3.50;99.90;;;;;;779633;183;26486;-83
2024/01/06 23:08:56;;;;;;;110.87;35.03;;;3.60;99.90;;;;;;767981;183;26510;-83
2024/01/06 23:11:22;;;;;;;109.50;35.50;;;3.60;99.90;;;;;;766055;185;26537;-69
2024/01/06 23:13:49;;;;;;;102.90;37.20;;;3.60;99.90;;;;;;766150;187;26521;-70
2024/01/06 23:19:15;;;;;;;233.97;83.03;;;3.80;99.90;;;;;;772353;183;26493;-81
2024/01/06 23:22:00;;;;;;;141.13;44.07;;;3.70;99.90;;;;;;773906;184;26532;-84
2024/01/06 23:24:47;;;;;;;109.03;35.07;;;3.70;99.90;;;;;;766475;184;26521;-83
2024/01/06 23:27:27;;;;;;;113.23;36.60;;;3.70;99.90;;;;;;767600;187;26512;-84
2024/01/06 23:30:25;;;;;;;118.67;36.30;;;3.70;99.90;;;;;;766476;187;27072;-83
2024/01/06 23:35:53;;;;;;;116.50;37.73;;;3.70;99.90;;;;;;769627;187;26524;-84
2024/01/06 23:41:08;;;;;;;119.77;35.87;;;3.60;99.90;;;;;;781643;180;26476;-85
2024/01/06 23:43:53;;;;;;;123.93;37.40;;;3.60;99.90;;;;;;752550;191;26588;-84
2024/01/06 23:46:25;;;;;;;109.97;34.10;;;3.60;99.90;;;;;;756813;189;26541;-85
2024/01/06 23:49:02;;;;;;;105.83;34.93;;;3.60;99.90;;;;;;757214;188;26997;-83
2024/01/06 23:51:38;;;;;;;119.03;35.30;;;3.60;99.90;;;;;;757001;189;26911;-84
2024/01/06 23:54:17;;;;;;;109.40;35.47;;;3.60;99.90;;;;;;770837;187;26487;-83
